createdAt,value
2023-04-06T00:00:45.696Z,1014.58
2023-04-06T00:01:45.738Z,1014.61
2023-04-06T00:02:45.754Z,1014.55
2023-04-06T00:03:46.254Z,1014.55
2023-04-06T00:04:45.843Z,1014.55
2023-04-06T00:05:45.840Z,1014.56
2023-04-06T00:06:45.861Z,1014.47
2023-04-06T00:07:45.885Z,1014.50
2023-04-06T00:08:45.923Z,1014.48
2023-04-06T00:09:45.934Z,1014.50
2023-04-06T00:10:46.275Z,1014.49
2023-04-06T00:11:46.000Z,1014.51
2023-04-06T00:12:46.036Z,1014.47
2023-04-06T00:13:46.121Z,1014.48
2023-04-06T00:14:46.132Z,1014.46
2023-04-06T00:15:46.155Z,1014.45
2023-04-06T00:16:46.239Z,1014.47
2023-04-06T00:17:46.516Z,1014.45
2023-04-06T00:18:46.249Z,1014.48
2023-04-06T00:20:46.293Z,1014.46
2023-04-06T00:21:46.292Z,1014.45
2023-04-06T00:22:46.311Z,1014.49
2023-04-06T00:23:46.341Z,1014.48
2023-04-06T00:25:46.407Z,1014.42
2023-04-06T00:26:46.436Z,1014.45
2023-04-06T00:27:46.459Z,1014.46
2023-04-06T00:28:46.534Z,1014.43
2023-04-06T00:29:46.517Z,1014.43
2023-04-06T00:30:46.546Z,1014.43
2023-04-06T00:32:46.927Z,1014.42
2023-04-06T00:33:46.627Z,1014.37
2023-04-06T00:34:46.663Z,1014.40
2023-04-06T00:35:46.734Z,1014.41
2023-04-06T00:36:46.729Z,1014.38
2023-04-06T00:37:46.738Z,1014.35
2023-04-06T00:38:46.771Z,1014.34
2023-04-06T00:39:47.096Z,1014.35
2023-04-06T00:40:46.858Z,1014.34
2023-04-06T00:41:46.859Z,1014.34
2023-04-06T00:42:46.887Z,1014.34
2023-04-06T00:43:46.921Z,1014.33
2023-04-06T00:44:47.053Z,1014.32
2023-04-06T00:45:46.996Z,1014.33
2023-04-06T00:46:47.297Z,1014.29
2023-04-06T00:47:47.053Z,1014.31
2023-04-06T00:48:47.063Z,1014.31
2023-04-06T00:49:47.080Z,1014.28
2023-04-06T00:50:47.118Z,1014.26
2023-04-06T00:51:47.147Z,1014.29
2023-04-06T00:52:47.186Z,1014.28
2023-04-06T00:53:47.510Z,1014.25
2023-04-06T00:54:47.217Z,1014.22
2023-04-06T00:55:47.261Z,1014.19
2023-04-06T00:56:47.292Z,1014.15
2023-04-06T00:57:47.311Z,1014.15
2023-04-06T00:58:47.345Z,1014.16
2023-04-06T00:59:47.376Z,1014.08
2023-04-06T01:00:47.715Z,1014.16
2023-04-06T01:01:48.705Z,1014.10
2023-04-06T01:02:47.501Z,1014.09
2023-04-06T01:03:47.494Z,1014.06
2023-04-06T01:04:47.525Z,1014.04
2023-04-06T01:06:47.873Z,1014.04
2023-04-06T01:07:47.601Z,1014.05
2023-04-06T01:08:47.658Z,1014.03
2023-04-06T01:09:47.655Z,1014.00
2023-04-06T01:10:47.704Z,1013.96
2023-04-06T01:11:47.756Z,1013.97
2023-04-06T01:12:48.045Z,1013.92
2023-04-06T01:13:47.785Z,1013.97
2023-04-06T01:14:47.800Z,1013.95
2023-04-06T01:15:47.853Z,1013.92
2023-04-06T01:16:47.860Z,1013.91
2023-04-06T01:17:47.908Z,1013.91
2023-04-06T01:18:48.266Z,1013.87
2023-04-06T01:19:47.935Z,1013.85
2023-04-06T01:20:48.031Z,1013.87
2023-04-06T01:21:48.010Z,1013.93
2023-04-06T01:22:48.025Z,1013.87
2023-04-06T01:23:48.062Z,1013.83
2023-04-06T01:24:48.157Z,1013.87
2023-04-06T01:25:48.439Z,1013.83
2023-04-06T01:26:48.316Z,1013.83
2023-04-06T01:27:48.227Z,1013.81
2023-04-06T01:28:48.343Z,1013.81
2023-04-06T01:29:48.227Z,1013.84
2023-04-06T01:30:48.247Z,1013.83
2023-04-06T01:31:48.300Z,1013.82
2023-04-06T01:32:48.669Z,1013.81
2023-04-06T01:33:48.334Z,1013.81
2023-04-06T01:34:48.373Z,1013.82
2023-04-06T01:35:48.435Z,1013.77
2023-04-06T01:36:48.456Z,1013.77
2023-04-06T01:37:48.457Z,1013.79
2023-04-06T01:38:48.493Z,1013.77
2023-04-06T01:39:48.803Z,1013.75
2023-04-06T01:40:48.554Z,1013.71
2023-04-06T01:41:48.566Z,1013.73
2023-04-06T01:42:48.600Z,1013.75
2023-04-06T01:43:48.817Z,1013.69
2023-04-06T01:44:48.666Z,1013.72
2023-04-06T01:45:48.670Z,1013.70
2023-04-06T01:46:49.097Z,1013.67
2023-04-06T01:47:48.738Z,1013.71
2023-04-06T01:48:48.764Z,1013.68
2023-04-06T01:49:48.823Z,1013.69
2023-04-06T01:50:48.819Z,1013.66
2023-04-06T01:51:48.858Z,1013.67
2023-04-06T01:52:48.889Z,1013.65
2023-04-06T01:53:49.249Z,1013.67
2023-04-06T01:54:48.956Z,1013.62
2023-04-06T01:55:48.971Z,1013.68
2023-04-06T01:56:49.050Z,1013.66
2023-04-06T01:57:49.013Z,1013.64
2023-04-06T01:58:49.089Z,1013.63
2023-04-06T01:59:49.065Z,1013.64
2023-04-06T02:00:49.449Z,1013.61
2023-04-06T02:02:49.148Z,1013.61
2023-04-06T02:03:49.180Z,1013.63
2023-04-06T02:04:49.241Z,1013.65
2023-04-06T02:05:49.238Z,1013.64
2023-04-06T02:06:49.286Z,1013.61
2023-04-06T02:07:49.599Z,1013.60
2023-04-06T02:10:49.407Z,1013.64
2023-04-06T02:11:49.410Z,1013.61
2023-04-06T02:12:49.462Z,1013.61
2023-04-06T02:13:49.492Z,1013.59
2023-04-06T02:14:49.896Z,1013.62
2023-04-06T02:15:49.530Z,1013.62
2023-04-06T02:16:49.575Z,1013.64
2023-04-06T02:17:49.782Z,1013.59
2023-04-06T02:19:49.644Z,1013.59
2023-04-06T02:20:49.664Z,1013.55
2023-04-06T02:21:49.994Z,1013.57
2023-04-06T02:22:49.727Z,1013.56
2023-04-06T02:23:49.782Z,1013.58
2023-04-06T02:24:49.899Z,1013.54
2023-04-06T02:25:49.817Z,1013.63
2023-04-06T02:26:49.831Z,1013.56
2023-04-06T02:27:49.859Z,1013.54
2023-04-06T02:28:50.222Z,1013.60
2023-04-06T02:29:49.923Z,1013.58
2023-04-06T02:30:49.943Z,1013.57
2023-04-06T02:31:50.034Z,1013.56
2023-04-06T02:32:50.032Z,1013.55
2023-04-06T02:33:50.031Z,1013.52
2023-04-06T02:34:50.060Z,1013.52
2023-04-06T02:35:50.425Z,1013.50
2023-04-06T02:37:50.147Z,1013.44
2023-04-06T02:38:50.178Z,1013.44
2023-04-06T02:40:50.242Z,1013.52
2023-04-06T02:41:50.267Z,1013.45
2023-04-06T02:43:50.359Z,1013.52
2023-04-06T02:44:50.366Z,1013.53
2023-04-06T02:45:50.465Z,1013.51
2023-04-06T02:46:50.391Z,1013.53
2023-04-06T02:47:50.451Z,1013.51
2023-04-06T02:48:50.452Z,1013.52
2023-04-06T02:49:50.787Z,1013.54
2023-04-06T02:50:50.506Z,1013.51
2023-04-06T02:51:50.552Z,1013.53
2023-04-06T02:52:50.570Z,1013.49
2023-04-06T02:54:50.643Z,1013.49
2023-04-06T02:55:50.653Z,1013.48
2023-04-06T02:56:50.971Z,1013.54
2023-04-06T02:57:50.712Z,1013.48
2023-04-06T02:58:50.843Z,1013.48
2023-04-06T02:59:50.767Z,1013.47
2023-04-06T03:00:50.807Z,1013.46
2023-04-06T03:01:50.888Z,1013.51
2023-04-06T03:02:51.216Z,1013.47
2023-04-06T03:03:51.046Z,1013.49
2023-04-06T03:05:50.933Z,1013.46
2023-04-06T03:07:50.985Z,1013.46
2023-04-06T03:09:51.048Z,1013.49
2023-04-06T03:10:51.072Z,1013.48
2023-04-06T03:11:51.109Z,1013.46
2023-04-06T03:12:51.121Z,1013.46
2023-04-06T03:13:51.159Z,1013.46
2023-04-06T03:14:51.502Z,1013.48
2023-04-06T03:15:51.245Z,1013.45
2023-04-06T03:16:51.267Z,1013.43
2023-04-06T03:17:51.343Z,1013.40
2023-04-06T03:18:51.293Z,1013.40
2023-04-06T03:19:51.333Z,1013.43
2023-04-06T03:20:51.364Z,1013.36
2023-04-06T03:21:51.387Z,1013.37
2023-04-06T03:22:51.412Z,1013.32
2023-04-06T03:23:51.442Z,1013.35
2023-04-06T03:24:51.477Z,1013.35
2023-04-06T03:25:51.484Z,1013.38
2023-04-06T03:26:51.534Z,1013.34
2023-04-06T03:27:51.848Z,1013.38
2023-04-06T03:28:51.564Z,1013.39
2023-04-06T03:30:51.641Z,1013.39
2023-04-06T03:31:51.657Z,1013.36
2023-04-06T03:32:51.733Z,1013.41
2023-04-06T03:33:51.765Z,1013.35
2023-04-06T03:34:52.040Z,1013.38
2023-04-06T03:35:51.781Z,1013.39
2023-04-06T03:37:03.110Z,1013.39
2023-04-06T03:37:51.824Z,1013.39
2023-04-06T03:38:51.845Z,1013.40
2023-04-06T03:39:51.889Z,1013.37
2023-04-06T03:40:51.927Z,1013.37
2023-04-06T03:41:52.243Z,1013.35
2023-04-06T03:42:51.968Z,1013.36
2023-04-06T03:43:51.988Z,1013.32
2023-04-06T03:44:52.015Z,1013.33
2023-04-06T03:45:52.052Z,1013.37
2023-04-06T03:46:52.245Z,1013.37
2023-04-06T03:47:52.105Z,1013.37
2023-04-06T03:48:52.469Z,1013.38
2023-04-06T03:49:52.158Z,1013.32
2023-04-06T03:50:52.191Z,1013.33
2023-04-06T03:51:52.223Z,1013.33
2023-04-06T03:52:52.237Z,1013.32
2023-04-06T03:53:52.301Z,1013.33
2023-04-06T03:54:52.336Z,1013.33
2023-04-06T03:55:52.344Z,1013.32
2023-04-06T03:56:52.498Z,1013.35
2023-04-06T03:57:52.421Z,1013.31
2023-04-06T03:58:52.647Z,1013.34
2023-04-06T03:59:52.441Z,1013.35
2023-04-06T04:00:52.490Z,1013.35
2023-04-06T04:01:52.809Z,1013.34
2023-04-06T04:02:52.590Z,1013.31
2023-04-06T04:03:52.632Z,1013.34
2023-04-06T04:04:52.627Z,1013.34
2023-04-06T04:05:52.605Z,1013.35
2023-04-06T04:06:52.650Z,1013.31
2023-04-06T04:07:52.678Z,1013.32
2023-04-06T04:08:52.685Z,1013.31
2023-04-06T04:09:52.714Z,1013.29
2023-04-06T04:10:52.743Z,1013.30
2023-04-06T04:11:52.769Z,1013.30
2023-04-06T04:12:52.815Z,1013.29
2023-04-06T04:13:53.137Z,1013.25
2023-04-06T04:14:52.858Z,1013.28
2023-04-06T04:15:52.927Z,1013.27
2023-04-06T04:16:53.197Z,1013.33
2023-04-06T04:17:52.965Z,1013.31
2023-04-06T04:18:52.965Z,1013.29
2023-04-06T04:19:53.500Z,1013.31
2023-04-06T04:20:53.040Z,1013.31
2023-04-06T04:21:53.048Z,1013.31
2023-04-06T04:22:53.113Z,1013.35
2023-04-06T04:23:53.132Z,1013.33
2023-04-06T04:24:53.157Z,1013.34
2023-04-06T04:25:53.203Z,1013.35
2023-04-06T04:26:53.509Z,1013.37
2023-04-06T04:27:53.222Z,1013.37
2023-04-06T04:28:53.251Z,1013.37
2023-04-06T04:29:53.282Z,1013.34
2023-04-06T04:31:53.424Z,1013.32
2023-04-06T04:32:53.473Z,1013.32
2023-04-06T04:33:53.694Z,1013.33
2023-04-06T04:34:53.433Z,1013.30
2023-04-06T04:35:53.504Z,1013.34
2023-04-06T04:36:53.499Z,1013.35
2023-04-06T04:37:53.510Z,1013.35
2023-04-06T04:38:53.544Z,1013.39
2023-04-06T04:39:53.579Z,1013.36
2023-04-06T04:40:53.896Z,1013.36
2023-04-06T04:41:53.621Z,1013.33
2023-04-06T04:42:53.640Z,1013.35
2023-04-06T04:43:53.674Z,1013.35
2023-04-06T04:44:53.887Z,1013.31
2023-04-06T04:45:53.827Z,1013.32
2023-04-06T04:46:53.954Z,1013.32
2023-04-06T04:47:54.140Z,1013.31
2023-04-06T04:48:53.821Z,1013.31
2023-04-06T04:49:53.852Z,1013.30
2023-04-06T04:50:53.870Z,1013.29
2023-04-06T04:51:53.912Z,1013.27
2023-04-06T04:52:53.945Z,1013.29
2023-04-06T04:53:53.953Z,1013.26
2023-04-06T04:54:54.298Z,1013.28
2023-04-06T04:55:54.016Z,1013.29
2023-04-06T04:56:54.048Z,1013.26
2023-04-06T04:57:54.073Z,1013.26
2023-04-06T04:58:54.151Z,1013.29
2023-04-06T04:59:55.436Z,1013.25
2023-04-06T05:00:54.196Z,1013.29
2023-04-06T05:01:55.652Z,1013.26
2023-04-06T05:03:54.308Z,1013.29
2023-04-06T05:04:54.256Z,1013.30
2023-04-06T05:05:54.311Z,1013.34
2023-04-06T05:06:54.333Z,1013.32
2023-04-06T05:08:54.715Z,1013.32
2023-04-06T05:09:54.420Z,1013.33
2023-04-06T05:10:54.441Z,1013.38
2023-04-06T05:11:54.476Z,1013.38
2023-04-06T05:12:54.484Z,1013.38
2023-04-06T05:13:54.523Z,1013.33
2023-04-06T05:14:54.579Z,1013.35
2023-04-06T05:15:54.953Z,1013.38
2023-04-06T05:16:54.598Z,1013.39
2023-04-06T05:17:54.676Z,1013.40
2023-04-06T05:18:54.658Z,1013.43
2023-04-06T05:19:54.690Z,1013.41
2023-04-06T05:20:54.738Z,1013.43
2023-04-06T05:21:54.742Z,1013.39
2023-04-06T05:22:55.076Z,1013.36
2023-04-06T05:23:54.829Z,1013.37
2023-04-06T05:26:54.902Z,1013.38
2023-04-06T05:27:54.905Z,1013.41
2023-04-06T05:28:54.941Z,1013.43
2023-04-06T05:30:55.360Z,1013.43
2023-04-06T05:31:55.029Z,1013.39
2023-04-06T05:32:55.124Z,1013.44
2023-04-06T05:33:55.080Z,1013.47
2023-04-06T05:34:55.101Z,1013.46
2023-04-06T05:35:55.139Z,1013.49
2023-04-06T05:36:55.152Z,1013.45
2023-04-06T05:37:55.492Z,1013.48
2023-04-06T05:38:55.223Z,1013.45
2023-04-06T05:39:55.232Z,1013.47
2023-04-06T05:40:55.276Z,1013.45
2023-04-06T05:41:55.296Z,1013.48
2023-04-06T05:42:55.449Z,1013.47
2023-04-06T05:43:55.340Z,1013.49
2023-04-06T05:44:55.691Z,1013.46
2023-04-06T05:46:55.450Z,1013.50
2023-04-06T05:47:55.534Z,1013.46
2023-04-06T05:48:55.490Z,1013.48
2023-04-06T05:49:55.514Z,1013.47
2023-04-06T05:50:55.565Z,1013.49
2023-04-06T05:51:55.883Z,1013.52
2023-04-06T05:52:55.594Z,1013.54
2023-04-06T05:53:55.623Z,1013.50
2023-04-06T05:54:55.641Z,1013.49
2023-04-06T05:55:55.676Z,1013.49
2023-04-06T05:56:55.716Z,1013.49
2023-04-06T05:57:55.729Z,1013.47
2023-04-06T05:58:56.140Z,1013.47
2023-04-06T05:59:55.784Z,1013.44
2023-04-06T06:01:55.884Z,1013.48
2023-04-06T06:02:55.955Z,1013.44
2023-04-06T06:03:55.891Z,1013.47
2023-04-06T06:04:55.938Z,1013.46
2023-04-06T06:05:56.255Z,1013.42
2023-04-06T06:06:55.992Z,1013.45
2023-04-06T06:07:56.058Z,1013.40
2023-04-06T06:08:56.037Z,1013.39
2023-04-06T06:09:56.607Z,1013.40
2023-04-06T06:10:56.093Z,1013.37
2023-04-06T06:11:56.110Z,1013.38
2023-04-06T06:12:56.146Z,1013.36
2023-04-06T06:13:56.179Z,1013.34
2023-04-06T06:14:56.467Z,1013.35
2023-04-06T06:15:56.246Z,1013.35
2023-04-06T06:16:56.346Z,1013.33
2023-04-06T06:17:56.337Z,1013.33
2023-04-06T06:18:56.305Z,1013.35
2023-04-06T06:19:56.417Z,1013.34
2023-04-06T06:20:56.363Z,1013.33
2023-04-06T06:21:56.396Z,1013.32
2023-04-06T06:23:56.757Z,1013.30
2023-04-06T06:24:56.497Z,1013.30
2023-04-06T06:25:56.510Z,1013.33
2023-04-06T06:26:56.531Z,1013.37
2023-04-06T06:27:56.567Z,1013.34
2023-04-06T06:28:56.594Z,1013.35
2023-04-06T06:29:56.631Z,1013.33
2023-04-06T06:30:56.789Z,1013.35
2023-04-06T06:31:56.843Z,1013.36
2023-04-06T06:32:56.739Z,1013.33
2023-04-06T06:33:56.757Z,1013.35
2023-04-06T06:34:56.764Z,1013.34
2023-04-06T06:35:56.827Z,1013.33
2023-04-06T06:36:56.810Z,1013.34
2023-04-06T06:37:56.851Z,1013.36
2023-04-06T06:38:56.880Z,1013.34
2023-04-06T06:39:57.030Z,1013.38
2023-04-06T06:40:56.931Z,1013.41
2023-04-06T06:41:56.964Z,1013.39
2023-04-06T06:42:56.999Z,1013.36
2023-04-06T06:43:57.067Z,1013.38
2023-04-06T06:44:57.089Z,1013.41
2023-04-06T06:45:57.118Z,1013.41
2023-04-06T06:46:57.120Z,1013.40
2023-04-06T06:47:57.135Z,1013.42
2023-04-06T06:48:57.461Z,1013.46
2023-04-06T06:49:57.198Z,1013.43
2023-04-06T06:50:57.230Z,1013.46
2023-04-06T06:51:57.241Z,1013.44
2023-04-06T06:52:57.266Z,1013.45
2023-04-06T06:53:57.305Z,1013.46
2023-04-06T06:54:57.913Z,1013.43
2023-04-06T06:56:57.375Z,1013.39
2023-04-06T06:57:57.414Z,1013.36
2023-04-06T06:58:57.476Z,1013.41
2023-04-06T06:59:57.480Z,1013.39
2023-04-06T07:00:57.822Z,1013.41
2023-04-06T07:01:57.521Z,1013.38
2023-04-06T07:02:57.672Z,1013.37
2023-04-06T07:03:57.632Z,1013.31
2023-04-06T07:05:57.657Z,1013.31
2023-04-06T07:06:57.958Z,1013.30
2023-04-06T07:07:57.683Z,1013.32
2023-04-06T07:08:58.014Z,1013.29
2023-04-06T07:09:57.751Z,1013.29
2023-04-06T07:10:57.774Z,1013.25
2023-04-06T07:11:57.802Z,1013.23
2023-04-06T07:12:57.826Z,1013.25
2023-04-06T07:13:58.169Z,1013.22
2023-04-06T07:14:57.911Z,1013.21
2023-04-06T07:15:57.998Z,1013.20
2023-04-06T07:16:57.989Z,1013.22
2023-04-06T07:17:57.975Z,1013.20
2023-04-06T07:18:58.019Z,1013.22
2023-04-06T07:19:58.131Z,1013.22
2023-04-06T07:20:58.048Z,1013.21
2023-04-06T07:21:58.087Z,1013.15
2023-04-06T07:22:58.184Z,1013.17
2023-04-06T07:23:58.144Z,1013.16
2023-04-06T07:25:00.061Z,1013.19
2023-04-06T07:25:58.218Z,1013.18
2023-04-06T07:27:58.249Z,1013.16
2023-04-06T07:28:58.299Z,1013.20
2023-04-06T07:29:58.325Z,1013.18
2023-04-06T07:30:58.334Z,1013.24
2023-04-06T07:31:58.430Z,1013.23
2023-04-06T07:32:58.741Z,1013.19
2023-04-06T07:33:58.422Z,1013.23
2023-04-06T07:34:58.473Z,1013.19
2023-04-06T07:35:58.530Z,1013.20
2023-04-06T07:36:58.531Z,1013.17
2023-04-06T07:37:58.548Z,1013.19
2023-04-06T07:38:58.553Z,1013.18
2023-04-06T07:39:58.900Z,1013.17
2023-04-06T07:41:58.668Z,1013.15
2023-04-06T07:42:58.677Z,1013.16
2023-04-06T07:43:58.712Z,1013.16
2023-04-06T07:44:58.751Z,1013.14
2023-04-06T07:45:58.845Z,1013.17
2023-04-06T07:46:58.796Z,1013.13
2023-04-06T07:47:58.840Z,1013.13
2023-04-06T07:48:58.856Z,1013.15
2023-04-06T07:49:58.874Z,1013.12
2023-04-06T07:50:58.916Z,1013.13
2023-04-06T07:51:59.248Z,1013.15
2023-04-06T07:53:58.987Z,1013.19
2023-04-06T07:54:59.018Z,1013.18
2023-04-06T07:55:59.063Z,1013.18
2023-04-06T07:56:59.087Z,1013.20
2023-04-06T07:57:59.120Z,1013.21
2023-04-06T07:58:59.228Z,1013.21
2023-04-06T07:59:59.166Z,1013.23
2023-04-06T08:00:59.453Z,1013.20
2023-04-06T08:01:59.229Z,1013.18
2023-04-06T08:02:59.303Z,1013.25
2023-04-06T08:03:59.749Z,1013.18
2023-04-06T08:04:59.384Z,1013.23
2023-04-06T08:05:59.344Z,1013.15
2023-04-06T08:06:59.385Z,1013.14
2023-04-06T08:07:59.401Z,1013.15
2023-04-06T08:08:59.409Z,1013.16
2023-04-06T08:09:59.449Z,1013.18
2023-04-06T08:11:01.940Z,1013.22
2023-04-06T08:11:59.578Z,1013.20
2023-04-06T08:12:59.556Z,1013.18
2023-04-06T08:13:59.552Z,1013.19
2023-04-06T08:14:59.580Z,1013.21
2023-04-06T08:15:59.666Z,1013.20
2023-04-06T08:16:59.656Z,1013.21
2023-04-06T08:18:00.049Z,1013.16
2023-04-06T08:18:59.703Z,1013.15
2023-04-06T08:19:59.736Z,1013.13
2023-04-06T08:20:59.769Z,1013.12
2023-04-06T08:21:59.782Z,1013.09
2023-04-06T08:22:59.868Z,1013.12
2023-04-06T08:23:59.857Z,1013.05
2023-04-06T08:25:00.170Z,1013.11
2023-04-06T08:25:59.907Z,1013.06
2023-04-06T08:26:59.927Z,1013.06
2023-04-06T08:27:59.967Z,1013.05
2023-04-06T08:28:59.990Z,1013.08
2023-04-06T08:30:00.041Z,1013.09
2023-04-06T08:31:00.067Z,1013.07
2023-04-06T08:32:00.131Z,1013.11
2023-04-06T08:33:00.174Z,1013.11
2023-04-06T08:34:00.146Z,1013.08
2023-04-06T08:35:00.209Z,1013.10
2023-04-06T08:36:00.255Z,1013.07
2023-04-06T08:37:00.323Z,1013.10
2023-04-06T08:38:00.548Z,1013.05
2023-04-06T08:39:00.288Z,1013.05
2023-04-06T08:40:00.311Z,1013.03
2023-04-06T08:41:00.332Z,1013.04
2023-04-06T08:42:00.375Z,1013.07
2023-04-06T08:43:00.395Z,1013.02
2023-04-06T08:45:00.756Z,1013.05
2023-04-06T08:46:00.596Z,1013.02
2023-04-06T08:47:00.522Z,1013.02
2023-04-06T08:48:00.572Z,1013.00
2023-04-06T08:49:00.629Z,1013.00
2023-04-06T08:50:00.608Z,1012.99
2023-04-06T08:51:00.923Z,1013.00
2023-04-06T08:52:00.648Z,1013.01
2023-04-06T08:53:00.676Z,1013.00
2023-04-06T08:54:00.731Z,1013.01
2023-04-06T08:55:00.804Z,1013.01
2023-04-06T08:56:00.765Z,1013.02
2023-04-06T08:57:00.801Z,1013.02
2023-04-06T08:58:00.842Z,1013.02
2023-04-06T08:59:00.873Z,1013.02
2023-04-06T09:00:00.928Z,1013.02
2023-04-06T09:02:00.972Z,1013.04
2023-04-06T09:03:01.106Z,1013.02
2023-04-06T09:04:01.110Z,1013.01
2023-04-06T09:05:01.332Z,1012.96
2023-04-06T09:06:01.069Z,1012.99
2023-04-06T09:07:01.094Z,1012.98
2023-04-06T09:08:01.147Z,1012.97
2023-04-06T09:09:01.441Z,1013.03
2023-04-06T09:10:01.181Z,1012.98
2023-04-06T09:11:01.321Z,1012.99
2023-04-06T09:12:01.248Z,1013.00
2023-04-06T09:13:01.285Z,1013.02
2023-04-06T09:14:01.291Z,1013.02
2023-04-06T09:15:01.328Z,1013.01
2023-04-06T09:16:01.782Z,1012.98
2023-04-06T09:17:01.380Z,1012.97
2023-04-06T09:18:01.441Z,1013.02
2023-04-06T09:19:01.435Z,1013.00
2023-04-06T09:20:01.614Z,1013.00
2023-04-06T09:21:01.509Z,1013.00
2023-04-06T09:22:01.552Z,1012.97
2023-04-06T09:23:01.857Z,1012.98
2023-04-06T09:24:01.684Z,1012.97
2023-04-06T09:25:01.636Z,1012.97
2023-04-06T09:27:01.708Z,1012.94
2023-04-06T09:28:01.735Z,1012.98
2023-04-06T09:29:01.752Z,1012.93
2023-04-06T09:31:01.847Z,1012.94
2023-04-06T09:32:01.849Z,1012.91
2023-04-06T09:33:01.900Z,1012.88
2023-04-06T09:34:01.884Z,1012.91
2023-04-06T09:35:01.920Z,1012.92
2023-04-06T09:36:01.996Z,1012.89
2023-04-06T09:37:02.324Z,1012.90
2023-04-06T09:38:02.011Z,1012.86
2023-04-06T09:39:02.055Z,1012.84
2023-04-06T09:40:02.070Z,1012.87
2023-04-06T09:41:02.103Z,1012.85
2023-04-06T09:42:02.132Z,1012.82
2023-04-06T09:43:02.265Z,1012.82
2023-04-06T09:44:02.215Z,1012.85
2023-04-06T09:45:02.234Z,1012.82
2023-04-06T09:46:02.256Z,1012.80
2023-04-06T09:47:02.371Z,1012.81
2023-04-06T09:48:02.478Z,1012.81
2023-04-06T09:49:02.386Z,1012.80
2023-04-06T09:50:02.667Z,1012.79
2023-04-06T09:51:02.459Z,1012.80
2023-04-06T09:52:02.426Z,1012.78
2023-04-06T09:53:02.515Z,1012.81
2023-04-06T09:54:02.488Z,1012.81
2023-04-06T09:55:02.506Z,1012.80
2023-04-06T09:56:02.946Z,1012.79
2023-04-06T09:57:02.641Z,1012.79
2023-04-06T09:58:02.758Z,1012.84
2023-04-06T09:59:02.674Z,1012.85
2023-04-06T10:00:02.694Z,1012.86
2023-04-06T10:01:02.738Z,1012.83
2023-04-06T10:02:03.076Z,1012.85
2023-04-06T10:03:02.918Z,1012.87
2023-04-06T10:04:02.990Z,1012.84
2023-04-06T10:05:02.837Z,1012.84
2023-04-06T10:06:02.847Z,1012.87
2023-04-06T10:07:02.903Z,1012.87
2023-04-06T10:08:03.246Z,1012.84
2023-04-06T10:09:02.931Z,1012.87
2023-04-06T10:10:02.984Z,1012.90
2023-04-06T10:11:03.009Z,1012.91
2023-04-06T10:12:03.018Z,1012.85
2023-04-06T10:13:03.075Z,1012.85
2023-04-06T10:14:03.095Z,1012.87
2023-04-06T10:15:03.136Z,1012.83
2023-04-06T10:16:03.191Z,1012.81
2023-04-06T10:17:03.170Z,1012.76
2023-04-06T10:18:03.300Z,1012.80
2023-04-06T10:19:03.228Z,1012.72
2023-04-06T10:20:03.269Z,1012.74
2023-04-06T10:21:03.584Z,1012.74
2023-04-06T10:22:03.331Z,1012.78
2023-04-06T10:23:03.351Z,1012.77
2023-04-06T10:24:03.424Z,1012.79
2023-04-06T10:25:03.458Z,1012.74
2023-04-06T10:26:03.453Z,1012.75
2023-04-06T10:27:03.470Z,1012.79
2023-04-06T10:28:03.829Z,1012.77
2023-04-06T10:29:03.537Z,1012.74
2023-04-06T10:30:03.575Z,1012.75
2023-04-06T10:31:03.615Z,1012.73
2023-04-06T10:32:03.656Z,1012.73
2023-04-06T10:33:03.690Z,1012.72
2023-04-06T10:34:03.748Z,1012.72
2023-04-06T10:35:04.034Z,1012.69
2023-04-06T10:36:03.796Z,1012.69
2023-04-06T10:37:03.821Z,1012.64
2023-04-06T10:38:03.822Z,1012.71
2023-04-06T10:39:03.840Z,1012.70
2023-04-06T10:40:03.925Z,1012.71
2023-04-06T10:41:03.982Z,1012.68
2023-04-06T10:42:04.234Z,1012.64
2023-04-06T10:43:04.071Z,1012.68
2023-04-06T10:44:04.018Z,1012.66
2023-04-06T10:45:04.145Z,1012.65
2023-04-06T10:46:04.110Z,1012.64
2023-04-06T10:47:04.156Z,1012.63
2023-04-06T10:48:04.235Z,1012.66
2023-04-06T10:49:04.158Z,1012.66
2023-04-06T10:50:04.188Z,1012.67
2023-04-06T10:51:04.257Z,1012.69
2023-04-06T10:52:04.251Z,1012.67
2023-04-06T10:53:04.278Z,1012.71
2023-04-06T10:54:04.307Z,1012.72
2023-04-06T10:55:04.332Z,1012.68
2023-04-06T10:56:04.363Z,1012.68
2023-04-06T10:57:04.419Z,1012.68
2023-04-06T10:58:04.432Z,1012.68
2023-04-06T10:59:04.513Z,1012.73
2023-04-06T11:00:04.520Z,1012.67
2023-04-06T11:01:04.897Z,1012.67
2023-04-06T11:02:04.568Z,1012.68
2023-04-06T11:03:04.656Z,1012.70
2023-04-06T11:05:04.632Z,1012.66
2023-04-06T11:06:04.672Z,1012.67
2023-04-06T11:08:05.041Z,1012.67
2023-04-06T11:09:04.827Z,1012.65
2023-04-06T11:10:15.517Z,1012.63
2023-04-06T11:11:04.830Z,1012.62
2023-04-06T11:12:04.859Z,1012.63
2023-04-06T11:13:05.132Z,1012.65
2023-04-06T11:14:05.226Z,1012.63
2023-04-06T11:15:04.946Z,1012.65
2023-04-06T11:16:04.975Z,1012.63
2023-04-06T11:19:05.093Z,1012.67
2023-04-06T11:20:05.097Z,1012.64
2023-04-06T11:21:05.419Z,1012.66
2023-04-06T11:22:05.169Z,1012.63
2023-04-06T11:23:05.206Z,1012.61
2023-04-06T11:24:05.227Z,1012.61
2023-04-06T11:25:05.269Z,1012.63
2023-04-06T11:26:05.285Z,1012.60
2023-04-06T11:27:05.317Z,1012.60
2023-04-06T11:28:05.645Z,1012.57
2023-04-06T11:29:05.376Z,1012.58
2023-04-06T11:30:05.416Z,1012.56
2023-04-06T11:31:05.473Z,1012.58
2023-04-06T11:32:05.478Z,1012.55
2023-04-06T11:33:05.553Z,1012.54
2023-04-06T11:34:05.524Z,1012.61
2023-04-06T11:35:05.884Z,1012.58
2023-04-06T11:36:05.633Z,1012.58
2023-04-06T11:37:05.648Z,1012.57
2023-04-06T11:38:05.708Z,1012.60
2023-04-06T11:39:05.680Z,1012.58
2023-04-06T11:40:05.729Z,1012.59
2023-04-06T11:41:05.737Z,1012.59
2023-04-06T11:42:09.085Z,1012.55
2023-04-06T11:43:05.795Z,1012.60
2023-04-06T11:44:06.118Z,1012.59
2023-04-06T11:45:05.915Z,1012.56
2023-04-06T11:46:06.041Z,1012.58
2023-04-06T11:48:06.439Z,1012.53
2023-04-06T11:49:06.037Z,1012.57
2023-04-06T11:50:06.072Z,1012.51
2023-04-06T11:51:06.148Z,1012.54
2023-04-06T11:52:06.094Z,1012.50
2023-04-06T11:53:06.188Z,1012.48
2023-04-06T11:54:06.173Z,1012.51
2023-04-06T11:55:06.187Z,1012.51
2023-04-06T11:56:06.235Z,1012.52
2023-04-06T11:57:06.234Z,1012.51
2023-04-06T11:58:06.274Z,1012.50
2023-04-06T11:59:06.358Z,1012.54
2023-04-06T12:00:06.348Z,1012.51
2023-04-06T12:01:06.719Z,1012.56
2023-04-06T12:02:06.392Z,1012.55
2023-04-06T12:03:06.568Z,1012.54
2023-04-06T12:04:06.491Z,1012.57
2023-04-06T12:05:06.523Z,1012.53
2023-04-06T12:06:06.541Z,1012.52
2023-04-06T12:07:06.876Z,1012.54
2023-04-06T12:08:06.582Z,1012.54
2023-04-06T12:09:06.625Z,1012.52
2023-04-06T12:10:06.667Z,1012.51
2023-04-06T12:11:06.684Z,1012.52
2023-04-06T12:12:06.707Z,1012.44
2023-04-06T12:13:06.743Z,1012.49
2023-04-06T12:14:06.764Z,1012.52
2023-04-06T12:15:06.793Z,1012.50
2023-04-06T12:16:07.152Z,1012.51
2023-04-06T12:17:06.867Z,1012.52
2023-04-06T12:18:06.925Z,1012.49
2023-04-06T12:19:06.980Z,1012.48
2023-04-06T12:20:22.171Z,1012.52
2023-04-06T12:21:06.988Z,1012.47
2023-04-06T12:23:07.061Z,1012.49
2023-04-06T12:24:07.075Z,1012.48
2023-04-06T12:25:07.427Z,1012.48
2023-04-06T12:26:07.169Z,1012.49
2023-04-06T12:27:10.434Z,1012.47
2023-04-06T12:28:07.200Z,1012.50
2023-04-06T12:29:07.245Z,1012.48
2023-04-06T12:30:07.290Z,1012.49
2023-04-06T12:31:07.545Z,1012.48
2023-04-06T12:32:07.643Z,1012.51
2023-04-06T12:33:07.466Z,1012.48
2023-04-06T12:34:07.423Z,1012.52
2023-04-06T12:36:07.460Z,1012.49
2023-04-06T12:37:07.507Z,1012.50
2023-04-06T12:38:07.521Z,1012.50
2023-04-06T12:40:07.887Z,1012.54
2023-04-06T12:41:07.608Z,1012.54
2023-04-06T12:42:07.632Z,1012.58
2023-04-06T12:43:07.686Z,1012.52
2023-04-06T12:44:07.706Z,1012.47
2023-04-06T12:45:07.741Z,1012.51
2023-04-06T12:46:07.783Z,1012.49
2023-04-06T12:47:07.868Z,1012.48
2023-04-06T12:48:07.891Z,1012.46